sensor_id;sensor_type;location;lat;lon;timestamp;temperature;humidity
67027;DHT22;53933;52.142;11.738;2022-08-04T00:01:02;26.70;53.90
67027;DHT22;53933;52.142;11.738;2022-08-04T00:03:36;26.60;54.30
67027;DHT22;53933;52.142;11.738;2022-08-04T00:06:11;26.50;54.00
67027;DHT22;53933;52.142;11.738;2022-08-04T00:08:43;26.50;53.80
67027;DHT22;53933;52.142;11.738;2022-08-04T00:11:15;26.50;53.90
67027;DHT22;53933;52.142;11.738;2022-08-04T00:13:51;26.50;54.20
67027;DHT22;53933;52.142;11.738;2022-08-04T00:16:22;26.40;54.40
67027;DHT22;53933;52.142;11.738;2022-08-04T00:18:54;26.40;54.40
67027;DHT22;53933;52.142;11.738;2022-08-04T00:21:23;26.40;54.50
67027;DHT22;53933;52.142;11.738;2022-08-04T00:23:51;26.40;54.50
67027;DHT22;53933;52.142;11.738;2022-08-04T00:26:18;26.40;54.80
67027;DHT22;53933;52.142;11.738;2022-08-04T00:28:47;26.30;54.90
67027;DHT22;53933;52.142;11.738;2022-08-04T00:31:14;26.30;55.00
67027;DHT22;53933;52.142;11.738;2022-08-04T00:33:44;26.20;55.20
67027;DHT22;53933;52.142;11.738;2022-08-04T00:36:12;26.20;55.30
67027;DHT22;53933;52.142;11.738;2022-08-04T00:38:40;26.20;55.30
67027;DHT22;53933;52.142;11.738;2022-08-04T00:41:18;26.20;55.40
67027;DHT22;53933;52.142;11.738;2022-08-04T00:43:56;26.10;56.10
67027;DHT22;53933;52.142;11.738;2022-08-04T00:46:43;26.10;55.60
67027;DHT22;53933;52.142;11.738;2022-08-04T00:49:40;26.00;55.90
67027;DHT22;53933;52.142;11.738;2022-08-04T00:52:25;26.10;55.90
67027;DHT22;53933;52.142;11.738;2022-08-04T00:55:03;26.10;55.70
67027;DHT22;53933;52.142;11.738;2022-08-04T00:57:39;26.00;55.80
67027;DHT22;53933;52.142;11.738;2022-08-04T01:00:15;26.00;55.50
67027;DHT22;53933;52.142;11.738;2022-08-04T01:02:54;26.00;55.40
67027;DHT22;53933;52.142;11.738;2022-08-04T01:05:36;26.00;55.40
67027;DHT22;53933;52.142;11.738;2022-08-04T01:08:19;26.00;55.30
67027;DHT22;53933;52.142;11.738;2022-08-04T01:10:58;25.90;55.10
67027;DHT22;53933;52.142;11.738;2022-08-04T01:13:40;25.90;55.10
67027;DHT22;53933;52.142;11.738;2022-08-04T01:16:15;26.00;55.00
67027;DHT22;53933;52.142;11.738;2022-08-04T01:18:52;26.00;55.20
67027;DHT22;53933;52.142;11.738;2022-08-04T01:21:36;25.90;55.10
67027;DHT22;53933;52.142;11.738;2022-08-04T01:27:05;25.90;55.20
67027;DHT22;53933;52.142;11.738;2022-08-04T01:29:39;25.90;55.60
67027;DHT22;53933;52.142;11.738;2022-08-04T01:32:07;25.90;55.60
67027;DHT22;53933;52.142;11.738;2022-08-04T01:34:44;25.80;55.80
67027;DHT22;53933;52.142;11.738;2022-08-04T01:37:22;25.80;56.00
67027;DHT22;53933;52.142;11.738;2022-08-04T01:39:59;25.70;55.90
67027;DHT22;53933;52.142;11.738;2022-08-04T01:42:28;25.70;55.80
67027;DHT22;53933;52.142;11.738;2022-08-04T01:44:58;25.70;56.00
67027;DHT22;53933;52.142;11.738;2022-08-04T01:47:28;25.70;56.00
67027;DHT22;53933;52.142;11.738;2022-08-04T01:50:03;25.70;56.10
67027;DHT22;53933;52.142;11.738;2022-08-04T01:52:31;25.70;56.40
67027;DHT22;53933;52.142;11.738;2022-08-04T01:54:58;25.70;56.50
67027;DHT22;53933;52.142;11.738;2022-08-04T01:57:27;25.70;56.70
67027;DHT22;53933;52.142;11.738;2022-08-04T01:59:58;25.60;56.90
67027;DHT22;53933;52.142;11.738;2022-08-04T02:02:25;25.60;56.90
67027;DHT22;53933;52.142;11.738;2022-08-04T02:04:52;25.60;57.20
67027;DHT22;53933;52.142;11.738;2022-08-04T02:07:29;25.60;57.10
67027;DHT22;53933;52.142;11.738;2022-08-04T02:10:04;25.60;57.50
67027;DHT22;53933;52.142;11.738;2022-08-04T02:12:48;25.50;57.30
67027;DHT22;53933;52.142;11.738;2022-08-04T02:15:26;25.60;57.30
67027;DHT22;53933;52.142;11.738;2022-08-04T02:17:59;25.60;57.40
67027;DHT22;53933;52.142;11.738;2022-08-04T02:20:29;25.60;57.40
67027;DHT22;53933;52.142;11.738;2022-08-04T02:22:58;25.60;57.40
67027;DHT22;53933;52.142;11.738;2022-08-04T02:25:27;25.50;57.20
67027;DHT22;53933;52.142;11.738;2022-08-04T02:27:59;25.50;57.00
67027;DHT22;53933;52.142;11.738;2022-08-04T02:30:35;25.50;57.20
67027;DHT22;53933;52.142;11.738;2022-08-04T02:33:06;25.50;57.30
67027;DHT22;53933;52.142;11.738;2022-08-04T02:35:35;25.40;57.40
67027;DHT22;53933;52.142;11.738;2022-08-04T02:38:10;25.50;57.50
67027;DHT22;53933;52.142;11.738;2022-08-04T02:40:38;25.50;57.60
67027;DHT22;53933;52.142;11.738;2022-08-04T02:43:05;25.50;57.70
67027;DHT22;53933;52.142;11.738;2022-08-04T02:45:36;25.40;57.70
67027;DHT22;53933;52.142;11.738;2022-08-04T02:48:03;25.40;57.60
67027;DHT22;53933;52.142;11.738;2022-08-04T02:50:33;25.50;57.60
67027;DHT22;53933;52.142;11.738;2022-08-04T02:53:02;25.50;57.70
67027;DHT22;53933;52.142;11.738;2022-08-04T02:55:30;25.40;57.30
67027;DHT22;53933;52.142;11.738;2022-08-04T02:58:02;25.40;57.30
67027;DHT22;53933;52.142;11.738;2022-08-04T03:00:30;25.40;57.30
67027;DHT22;53933;52.142;11.738;2022-08-04T03:03:11;25.30;57.10
67027;DHT22;53933;52.142;11.738;2022-08-04T03:05:54;25.40;57.30
67027;DHT22;53933;52.142;11.738;2022-08-04T03:08:58;25.30;57.20
67027;DHT22;53933;52.142;11.738;2022-08-04T03:11:46;25.30;57.30
67027;DHT22;53933;52.142;11.738;2022-08-04T03:14:48;25.30;57.60
67027;DHT22;53933;52.142;11.738;2022-08-04T03:17:53;25.30;57.40
67027;DHT22;53933;52.142;11.738;2022-08-04T03:20:38;25.30;57.30
67027;DHT22;53933;52.142;11.738;2022-08-04T03:23:48;25.20;57.20
67027;DHT22;53933;52.142;11.738;2022-08-04T03:26:45;25.20;57.60
67027;DHT22;53933;52.142;11.738;2022-08-04T03:39:09;25.10;57.90
67027;DHT22;53933;52.142;11.738;2022-08-04T03:41:53;25.20;58.20
67027;DHT22;53933;52.142;11.738;2022-08-04T03:44:57;25.20;58.40
67027;DHT22;53933;52.142;11.738;2022-08-04T03:47:47;25.20;57.90
67027;DHT22;53933;52.142;11.738;2022-08-04T03:54:17;25.10;58.50
67027;DHT22;53933;52.142;11.738;2022-08-04T03:57:01;25.10;58.60
67027;DHT22;53933;52.142;11.738;2022-08-04T03:59:44;25.10;58.90
67027;DHT22;53933;52.142;11.738;2022-08-04T04:02:53;25.10;58.90
67027;DHT22;53933;52.142;11.738;2022-08-04T04:05:56;25.10;58.90
67027;DHT22;53933;52.142;11.738;2022-08-04T04:09:08;25.10;59.00
67027;DHT22;53933;52.142;11.738;2022-08-04T04:11:58;25.10;59.00
67027;DHT22;53933;52.142;11.738;2022-08-04T04:14:46;25.10;58.70
67027;DHT22;53933;52.142;11.738;2022-08-04T04:17:34;25.10;58.50
67027;DHT22;53933;52.142;11.738;2022-08-04T04:20:24;25.20;58.30
67027;DHT22;53933;52.142;11.738;2022-08-04T04:22:59;25.20;58.00
67027;DHT22;53933;52.142;11.738;2022-08-04T04:25:45;25.30;58.20
67027;DHT22;53933;52.142;11.738;2022-08-04T04:28:31;25.40;58.10
67027;DHT22;53933;52.142;11.738;2022-08-04T04:31:16;25.50;57.60
67027;DHT22;53933;52.142;11.738;2022-08-04T04:33:53;25.70;57.50
67027;DHT22;53933;52.142;11.738;2022-08-04T04:36:31;25.90;56.90
67027;DHT22;53933;52.142;11.738;2022-08-04T04:39:06;26.10;56.70
67027;DHT22;53933;52.142;11.738;2022-08-04T04:41:51;26.10;56.20
67027;DHT22;53933;52.142;11.738;2022-08-04T04:44:51;26.20;56.10
67027;DHT22;53933;52.142;11.738;2022-08-04T04:47:28;26.20;55.90
67027;DHT22;53933;52.142;11.738;2022-08-04T04:49:58;26.30;56.50
67027;DHT22;53933;52.142;11.738;2022-08-04T04:52:37;26.30;56.60
67027;DHT22;53933;52.142;11.738;2022-08-04T04:55:12;26.30;56.40
67027;DHT22;53933;52.142;11.738;2022-08-04T04:57:44;26.30;56.10
67027;DHT22;53933;52.142;11.738;2022-08-04T05:00:13;26.50;56.00
67027;DHT22;53933;52.142;11.738;2022-08-04T05:03:03;26.60;56.00
67027;DHT22;53933;52.142;11.738;2022-08-04T05:05:38;26.70;56.00
67027;DHT22;53933;52.142;11.738;2022-08-04T05:08:39;26.70;55.60
67027;DHT22;53933;52.142;11.738;2022-08-04T05:14:11;26.90;55.60
67027;DHT22;53933;52.142;11.738;2022-08-04T05:16:43;27.00;55.40
67027;DHT22;53933;52.142;11.738;2022-08-04T05:19:19;27.00;55.50
67027;DHT22;53933;52.142;11.738;2022-08-04T05:21:50;27.00;55.90
67027;DHT22;53933;52.142;11.738;2022-08-04T05:24:19;27.10;56.00
67027;DHT22;53933;52.142;11.738;2022-08-04T05:26:52;27.20;55.90
67027;DHT22;53933;52.142;11.738;2022-08-04T05:29:26;27.20;55.80
67027;DHT22;53933;52.142;11.738;2022-08-04T05:31:54;27.30;55.70
67027;DHT22;53933;52.142;11.738;2022-08-04T05:34:26;27.40;56.20
67027;DHT22;53933;52.142;11.738;2022-08-04T05:36:57;27.60;56.30
67027;DHT22;53933;52.142;11.738;2022-08-04T05:39:27;27.70;56.20
67027;DHT22;53933;52.142;11.738;2022-08-04T05:41:56;27.80;54.70
67027;DHT22;53933;52.142;11.738;2022-08-04T05:44:26;27.80;52.90
67027;DHT22;53933;52.142;11.738;2022-08-04T05:46:55;27.90;52.40
67027;DHT22;53933;52.142;11.738;2022-08-04T05:49:23;27.90;52.20
67027;DHT22;53933;52.142;11.738;2022-08-04T05:51:51;28.00;51.90
67027;DHT22;53933;52.142;11.738;2022-08-04T05:54:19;28.00;51.70
67027;DHT22;53933;52.142;11.738;2022-08-04T05:56:47;28.00;51.50
67027;DHT22;53933;52.142;11.738;2022-08-04T05:59:14;28.00;51.30
67027;DHT22;53933;52.142;11.738;2022-08-04T06:01:44;28.10;51.30
67027;DHT22;53933;52.142;11.738;2022-08-04T06:04:12;28.10;51.20
67027;DHT22;53933;52.142;11.738;2022-08-04T06:06:39;28.10;51.10
67027;DHT22;53933;52.142;11.738;2022-08-04T06:09:07;28.10;51.00
67027;DHT22;53933;52.142;11.738;2022-08-04T06:11:37;28.20;51.00
67027;DHT22;53933;52.142;11.738;2022-08-04T06:14:07;28.20;51.00
67027;DHT22;53933;52.142;11.738;2022-08-04T06:16:37;28.20;50.60
67027;DHT22;53933;52.142;11.738;2022-08-04T06:19:07;28.40;51.60
67027;DHT22;53933;52.142;11.738;2022-08-04T06:21:37;28.50;52.30
67027;DHT22;53933;52.142;11.738;2022-08-04T06:24:07;28.60;51.20
67027;DHT22;53933;52.142;11.738;2022-08-04T06:26:35;28.80;51.30
67027;DHT22;53933;52.142;11.738;2022-08-04T06:29:05;28.80;50.80
67027;DHT22;53933;52.142;11.738;2022-08-04T06:31:39;29.00;50.20
67027;DHT22;53933;52.142;11.738;2022-08-04T06:34:13;29.10;50.40
67027;DHT22;53933;52.142;11.738;2022-08-04T06:36:41;29.10;50.40
67027;DHT22;53933;52.142;11.738;2022-08-04T06:39:09;29.30;50.10
67027;DHT22;53933;52.142;11.738;2022-08-04T06:41:37;29.30;49.70
67027;DHT22;53933;52.142;11.738;2022-08-04T06:44:07;29.40;49.80
67027;DHT22;53933;52.142;11.738;2022-08-04T06:46:36;29.50;49.70
67027;DHT22;53933;52.142;11.738;2022-08-04T06:49:03;29.50;49.40
67027;DHT22;53933;52.142;11.738;2022-08-04T06:51:33;29.60;49.30
67027;DHT22;53933;52.142;11.738;2022-08-04T06:53:59;29.70;49.10
67027;DHT22;53933;52.142;11.738;2022-08-04T06:56:26;29.70;48.90
67027;DHT22;53933;52.142;11.738;2022-08-04T06:58:55;29.80;48.90
67027;DHT22;53933;52.142;11.738;2022-08-04T07:01:23;29.90;48.20
67027;DHT22;53933;52.142;11.738;2022-08-04T07:03:51;29.90;47.80
67027;DHT22;53933;52.142;11.738;2022-08-04T07:06:20;30.00;48.30
67027;DHT22;53933;52.142;11.738;2022-08-04T07:08:48;30.00;48.60
67027;DHT22;53933;52.142;11.738;2022-08-04T07:11:16;30.00;47.80
67027;DHT22;53933;52.142;11.738;2022-08-04T07:13:45;30.10;47.70
67027;DHT22;53933;52.142;11.738;2022-08-04T07:16:12;30.10;47.50
67027;DHT22;53933;52.142;11.738;2022-08-04T07:18:39;30.20;47.40
67027;DHT22;53933;52.142;11.738;2022-08-04T07:21:06;30.20;47.40
67027;DHT22;53933;52.142;11.738;2022-08-04T07:23:33;30.20;47.40
67027;DHT22;53933;52.142;11.738;2022-08-04T07:26:01;30.20;47.10
67027;DHT22;53933;52.142;11.738;2022-08-04T07:28:28;30.30;46.40
67027;DHT22;53933;52.142;11.738;2022-08-04T07:30:56;30.30;46.40
67027;DHT22;53933;52.142;11.738;2022-08-04T07:33:23;30.40;45.90
67027;DHT22;53933;52.142;11.738;2022-08-04T07:35:52;30.50;46.50
67027;DHT22;53933;52.142;11.738;2022-08-04T07:38:20;30.60;45.90
67027;DHT22;53933;52.142;11.738;2022-08-04T07:40:47;30.50;45.90
67027;DHT22;53933;52.142;11.738;2022-08-04T07:43:16;30.50;45.80
67027;DHT22;53933;52.142;11.738;2022-08-04T07:45:42;30.60;45.20
67027;DHT22;53933;52.142;11.738;2022-08-04T07:48:09;30.70;45.20
67027;DHT22;53933;52.142;11.738;2022-08-04T07:50:37;30.80;45.40
67027;DHT22;53933;52.142;11.738;2022-08-04T07:53:07;30.80;45.50
67027;DHT22;53933;52.142;11.738;2022-08-04T07:55:35;30.80;45.10
67027;DHT22;53933;52.142;11.738;2022-08-04T07:58:02;30.90;44.90
67027;DHT22;53933;52.142;11.738;2022-08-04T08:00:30;31.00;45.10
67027;DHT22;53933;52.142;11.738;2022-08-04T08:02:58;31.00;45.00
67027;DHT22;53933;52.142;11.738;2022-08-04T08:05:26;31.00;44.60
67027;DHT22;53933;52.142;11.738;2022-08-04T08:07:53;31.10;43.40
67027;DHT22;53933;52.142;11.738;2022-08-04T08:10:21;31.20;43.30
67027;DHT22;53933;52.142;11.738;2022-08-04T08:12:48;31.20;43.30
67027;DHT22;53933;52.142;11.738;2022-08-04T08:15:15;31.30;42.90
67027;DHT22;53933;52.142;11.738;2022-08-04T08:17:45;31.30;43.30
67027;DHT22;53933;52.142;11.738;2022-08-04T08:20:11;31.30;43.20
67027;DHT22;53933;52.142;11.738;2022-08-04T08:22:38;31.30;43.20
67027;DHT22;53933;52.142;11.738;2022-08-04T08:25:06;31.40;42.90
67027;DHT22;53933;52.142;11.738;2022-08-04T08:27:33;31.50;42.40
67027;DHT22;53933;52.142;11.738;2022-08-04T08:29:59;31.50;42.30
67027;DHT22;53933;52.142;11.738;2022-08-04T08:32:26;31.70;42.30
67027;DHT22;53933;52.142;11.738;2022-08-04T08:34:54;31.70;42.00
67027;DHT22;53933;52.142;11.738;2022-08-04T08:37:28;31.80;41.60
67027;DHT22;53933;52.142;11.738;2022-08-04T08:40:01;31.90;41.40
67027;DHT22;53933;52.142;11.738;2022-08-04T08:42:48;31.90;41.10
67027;DHT22;53933;52.142;11.738;2022-08-04T08:45:29;32.10;40.40
67027;DHT22;53933;52.142;11.738;2022-08-04T08:48:15;32.20;40.30
67027;DHT22;53933;52.142;11.738;2022-08-04T08:51:02;32.20;41.00
67027;DHT22;53933;52.142;11.738;2022-08-04T08:53:58;32.20;41.00
67027;DHT22;53933;52.142;11.738;2022-08-04T08:56:35;32.20;41.10
67027;DHT22;53933;52.142;11.738;2022-08-04T08:59:18;32.20;41.50
67027;DHT22;53933;52.142;11.738;2022-08-04T09:02:01;32.20;41.10
67027;DHT22;53933;52.142;11.738;2022-08-04T09:04:55;32.20;41.10
67027;DHT22;53933;52.142;11.738;2022-08-04T09:07:42;32.30;41.30
67027;DHT22;53933;52.142;11.738;2022-08-04T09:10:12;32.50;39.90
67027;DHT22;53933;52.142;11.738;2022-08-04T09:12:49;32.70;39.60
67027;DHT22;53933;52.142;11.738;2022-08-04T09:15:23;32.70;40.20
67027;DHT22;53933;52.142;11.738;2022-08-04T09:17:56;32.80;39.70
67027;DHT22;53933;52.142;11.738;2022-08-04T09:20:28;32.90;39.00
67027;DHT22;53933;52.142;11.738;2022-08-04T09:23:07;33.10;39.50
67027;DHT22;53933;52.142;11.738;2022-08-04T09:25:43;33.20;39.10
67027;DHT22;53933;52.142;11.738;2022-08-04T09:28:19;33.30;39.10
67027;DHT22;53933;52.142;11.738;2022-08-04T09:30:53;33.50;38.00
67027;DHT22;53933;52.142;11.738;2022-08-04T09:33:29;33.70;38.20
67027;DHT22;53933;52.142;11.738;2022-08-04T09:36:02;33.80;37.90
67027;DHT22;53933;52.142;11.738;2022-08-04T09:38:34;33.80;38.00
67027;DHT22;53933;52.142;11.738;2022-08-04T09:41:15;33.90;37.60
67027;DHT22;53933;52.142;11.738;2022-08-04T09:44:00;34.10;37.50
67027;DHT22;53933;52.142;11.738;2022-08-04T09:46:34;34.20;37.50
67027;DHT22;53933;52.142;11.738;2022-08-04T09:49:06;34.10;37.50
67027;DHT22;53933;52.142;11.738;2022-08-04T09:51:44;34.10;36.80
67027;DHT22;53933;52.142;11.738;2022-08-04T09:54:22;34.20;37.10
67027;DHT22;53933;52.142;11.738;2022-08-04T09:56:59;34.20;37.10
67027;DHT22;53933;52.142;11.738;2022-08-04T09:59:35;34.40;36.70
67027;DHT22;53933;52.142;11.738;2022-08-04T10:02:08;34.60;36.10
67027;DHT22;53933;52.142;11.738;2022-08-04T10:04:38;34.70;36.00
67027;DHT22;53933;52.142;11.738;2022-08-04T10:07:18;34.70;35.90
67027;DHT22;53933;52.142;11.738;2022-08-04T10:10:06;34.70;36.10
67027;DHT22;53933;52.142;11.738;2022-08-04T10:12:43;34.80;36.00
67027;DHT22;53933;52.142;11.738;2022-08-04T10:15:18;34.70;36.10
67027;DHT22;53933;52.142;11.738;2022-08-04T10:17:59;34.70;36.20
67027;DHT22;53933;52.142;11.738;2022-08-04T10:20:47;34.70;35.90
67027;DHT22;53933;52.142;11.738;2022-08-04T10:23:22;34.60;36.10
67027;DHT22;53933;52.142;11.738;2022-08-04T10:26:03;34.60;36.30
67027;DHT22;53933;52.142;11.738;2022-08-04T10:28:34;34.50;36.70
67027;DHT22;53933;52.142;11.738;2022-08-04T10:31:07;34.50;36.80
67027;DHT22;53933;52.142;11.738;2022-08-04T10:33:41;34.50;36.80
67027;DHT22;53933;52.142;11.738;2022-08-04T10:36:09;34.50;36.80
67027;DHT22;53933;52.142;11.738;2022-08-04T10:38:45;34.30;36.90
67027;DHT22;53933;52.142;11.738;2022-08-04T10:41:24;34.20;36.50
67027;DHT22;53933;52.142;11.738;2022-08-04T10:44:05;34.30;37.00
67027;DHT22;53933;52.142;11.738;2022-08-04T10:46:38;34.30;37.10
67027;DHT22;53933;52.142;11.738;2022-08-04T10:49:15;34.20;36.70
67027;DHT22;53933;52.142;11.738;2022-08-04T10:51:49;34.10;37.00
67027;DHT22;53933;52.142;11.738;2022-08-04T10:54:20;34.10;37.20
67027;DHT22;53933;52.142;11.738;2022-08-04T10:56:54;33.90;37.30
67027;DHT22;53933;52.142;11.738;2022-08-04T10:59:23;33.70;37.80
67027;DHT22;53933;52.142;11.738;2022-08-04T11:01:57;33.50;38.10
67027;DHT22;53933;52.142;11.738;2022-08-04T11:04:32;33.40;38.30
67027;DHT22;53933;52.142;11.738;2022-08-04T11:07:03;33.20;38.10
67027;DHT22;53933;52.142;11.738;2022-08-04T11:09:30;33.20;38.00
67027;DHT22;53933;52.142;11.738;2022-08-04T11:12:04;33.00;38.30
67027;DHT22;53933;52.142;11.738;2022-08-04T11:14:36;33.00;38.60
67027;DHT22;53933;52.142;11.738;2022-08-04T11:17:06;32.80;38.80
67027;DHT22;53933;52.142;11.738;2022-08-04T11:19:42;32.80;39.00
67027;DHT22;53933;52.142;11.738;2022-08-04T11:22:18;32.60;38.60
67027;DHT22;53933;52.142;11.738;2022-08-04T11:24:53;32.50;38.80
67027;DHT22;53933;52.142;11.738;2022-08-04T11:27:28;32.50;38.10
67027;DHT22;53933;52.142;11.738;2022-08-04T11:30:03;32.60;38.80
67027;DHT22;53933;52.142;11.738;2022-08-04T11:32:36;32.60;38.80
67027;DHT22;53933;52.142;11.738;2022-08-04T11:35:11;32.50;39.20
67027;DHT22;53933;52.142;11.738;2022-08-04T11:37:44;32.50;39.60
67027;DHT22;53933;52.142;11.738;2022-08-04T11:40:19;32.40;39.10
67027;DHT22;53933;52.142;11.738;2022-08-04T11:42:51;32.30;39.10
67027;DHT22;53933;52.142;11.738;2022-08-04T11:45:24;32.20;39.40
67027;DHT22;53933;52.142;11.738;2022-08-04T11:47:56;32.20;39.20
67027;DHT22;53933;52.142;11.738;2022-08-04T11:50:30;32.20;39.40
67027;DHT22;53933;52.142;11.738;2022-08-04T11:52:58;32.20;39.20
67027;DHT22;53933;52.142;11.738;2022-08-04T11:55:26;32.10;39.60
67027;DHT22;53933;52.142;11.738;2022-08-04T11:57:55;32.20;39.50
67027;DHT22;53933;52.142;11.738;2022-08-04T12:00:24;32.10;39.60
67027;DHT22;53933;52.142;11.738;2022-08-04T12:03:10;32.10;39.80
67027;DHT22;53933;52.142;11.738;2022-08-04T12:05:51;31.90;40.10
67027;DHT22;53933;52.142;11.738;2022-08-04T12:08:32;32.00;40.00
67027;DHT22;53933;52.142;11.738;2022-08-04T12:11:12;32.00;40.10
67027;DHT22;53933;52.142;11.738;2022-08-04T12:13:48;32.10;39.90
67027;DHT22;53933;52.142;11.738;2022-08-04T12:16:17;32.10;40.10
67027;DHT22;53933;52.142;11.738;2022-08-04T12:18:55;32.10;40.00
67027;DHT22;53933;52.142;11.738;2022-08-04T12:21:27;32.10;40.20
67027;DHT22;53933;52.142;11.738;2022-08-04T12:24:02;32.10;40.50
67027;DHT22;53933;52.142;11.738;2022-08-04T12:26:35;32.00;40.60
67027;DHT22;53933;52.142;11.738;2022-08-04T12:29:05;32.00;40.90
67027;DHT22;53933;52.142;11.738;2022-08-04T12:31:37;31.90;40.60
67027;DHT22;53933;52.142;11.738;2022-08-04T12:34:07;32.00;41.00
67027;DHT22;53933;52.142;11.738;2022-08-04T12:36:43;32.00;40.80
67027;DHT22;53933;52.142;11.738;2022-08-04T12:39:12;32.00;40.70
67027;DHT22;53933;52.142;11.738;2022-08-04T12:41:46;32.00;40.80
67027;DHT22;53933;52.142;11.738;2022-08-04T12:44:17;32.00;40.70
67027;DHT22;53933;52.142;11.738;2022-08-04T12:46:45;32.00;40.50
67027;DHT22;53933;52.142;11.738;2022-08-04T12:49:14;32.10;40.60
67027;DHT22;53933;52.142;11.738;2022-08-04T12:51:43;32.00;40.70
67027;DHT22;53933;52.142;11.738;2022-08-04T12:54:10;32.10;41.00
67027;DHT22;53933;52.142;11.738;2022-08-04T12:56:38;32.00;41.30
67027;DHT22;53933;52.142;11.738;2022-08-04T12:59:06;31.90;41.70
67027;DHT22;53933;52.142;11.738;2022-08-04T13:01:35;31.90;41.70
67027;DHT22;53933;52.142;11.738;2022-08-04T13:04:11;31.80;42.00
67027;DHT22;53933;52.142;11.738;2022-08-04T13:06:38;31.70;41.90
67027;DHT22;53933;52.142;11.738;2022-08-04T13:09:08;31.70;42.20
67027;DHT22;53933;52.142;11.738;2022-08-04T13:11:39;31.70;41.80
67027;DHT22;53933;52.142;11.738;2022-08-04T13:14:07;31.70;42.00
67027;DHT22;53933;52.142;11.738;2022-08-04T13:16:36;31.70;42.10
67027;DHT22;53933;52.142;11.738;2022-08-04T13:19:06;31.70;42.50
67027;DHT22;53933;52.142;11.738;2022-08-04T13:21:34;31.60;42.50
67027;DHT22;53933;52.142;11.738;2022-08-04T13:24:09;31.60;42.10
67027;DHT22;53933;52.142;11.738;2022-08-04T13:26:37;31.50;42.00
67027;DHT22;53933;52.142;11.738;2022-08-04T13:29:12;31.50;41.90
67027;DHT22;53933;52.142;11.738;2022-08-04T13:31:42;31.50;42.20
67027;DHT22;53933;52.142;11.738;2022-08-04T13:34:10;31.50;42.60
67027;DHT22;53933;52.142;11.738;2022-08-04T13:36:38;31.50;42.80
67027;DHT22;53933;52.142;11.738;2022-08-04T13:39:08;31.40;42.70
67027;DHT22;53933;52.142;11.738;2022-08-04T13:41:44;31.40;42.80
67027;DHT22;53933;52.142;11.738;2022-08-04T13:44:12;31.40;42.60
67027;DHT22;53933;52.142;11.738;2022-08-04T13:46:46;31.30;42.70
67027;DHT22;53933;52.142;11.738;2022-08-04T13:49:16;31.30;42.60
67027;DHT22;53933;52.142;11.738;2022-08-04T13:51:47;31.30;42.50
67027;DHT22;53933;52.142;11.738;2022-08-04T13:54:14;31.30;42.60
67027;DHT22;53933;52.142;11.738;2022-08-04T13:56:44;31.30;42.50
67027;DHT22;53933;52.142;11.738;2022-08-04T13:59:15;31.30;42.40
67027;DHT22;53933;52.142;11.738;2022-08-04T14:01:45;31.30;41.80
67027;DHT22;53933;52.142;11.738;2022-08-04T14:04:17;31.50;42.40
67027;DHT22;53933;52.142;11.738;2022-08-04T14:06:49;31.50;41.60
67027;DHT22;53933;52.142;11.738;2022-08-04T14:09:18;31.50;41.90
67027;DHT22;53933;52.142;11.738;2022-08-04T14:11:47;31.50;42.50
67027;DHT22;53933;52.142;11.738;2022-08-04T14:14:16;31.50;42.30
67027;DHT22;53933;52.142;11.738;2022-08-04T14:17:06;31.50;42.30
67027;DHT22;53933;52.142;11.738;2022-08-04T14:19:48;31.50;42.30
67027;DHT22;53933;52.142;11.738;2022-08-04T14:22:30;31.40;41.80
67027;DHT22;53933;52.142;11.738;2022-08-04T14:25:00;31.40;42.30
67027;DHT22;53933;52.142;11.738;2022-08-04T14:27:29;31.40;42.20
67027;DHT22;53933;52.142;11.738;2022-08-04T14:29:56;31.30;41.60
67027;DHT22;53933;52.142;11.738;2022-08-04T14:32:24;31.30;42.90
67027;DHT22;53933;52.142;11.738;2022-08-04T14:34:51;31.30;43.40
67027;DHT22;53933;52.142;11.738;2022-08-04T14:37:17;31.30;42.10
67027;DHT22;53933;52.142;11.738;2022-08-04T14:39:48;31.30;42.30
67027;DHT22;53933;52.142;11.738;2022-08-04T14:42:15;31.30;41.80
67027;DHT22;53933;52.142;11.738;2022-08-04T14:44:53;31.30;42.40
67027;DHT22;53933;52.142;11.738;2022-08-04T14:47:37;31.30;42.80
67027;DHT22;53933;52.142;11.738;2022-08-04T14:50:05;31.20;42.80
67027;DHT22;53933;52.142;11.738;2022-08-04T14:52:32;31.20;42.30
67027;DHT22;53933;52.142;11.738;2022-08-04T14:55:14;31.20;42.40
67027;DHT22;53933;52.142;11.738;2022-08-04T14:57:41;31.20;42.20
67027;DHT22;53933;52.142;11.738;2022-08-04T15:00:09;31.10;42.20
67027;DHT22;53933;52.142;11.738;2022-08-04T15:02:38;31.10;42.30
67027;DHT22;53933;52.142;11.738;2022-08-04T15:05:08;31.10;42.70
67027;DHT22;53933;52.142;11.738;2022-08-04T15:07:35;31.10;42.50
67027;DHT22;53933;52.142;11.738;2022-08-04T15:10:02;31.10;42.50
67027;DHT22;53933;52.142;11.738;2022-08-04T15:12:29;31.10;42.70
67027;DHT22;53933;52.142;11.738;2022-08-04T15:14:55;31.10;42.40
67027;DHT22;53933;52.142;11.738;2022-08-04T15:17:22;31.10;42.20
67027;DHT22;53933;52.142;11.738;2022-08-04T15:19:50;31.10;42.60
67027;DHT22;53933;52.142;11.738;2022-08-04T15:22:17;31.10;42.70
67027;DHT22;53933;52.142;11.738;2022-08-04T15:24:43;31.00;42.70
67027;DHT22;53933;52.142;11.738;2022-08-04T15:27:10;31.00;42.60
67027;DHT22;53933;52.142;11.738;2022-08-04T15:29:40;31.00;42.40
67027;DHT22;53933;52.142;11.738;2022-08-04T15:32:09;31.00;42.50
67027;DHT22;53933;52.142;11.738;2022-08-04T15:34:45;31.00;42.50
67027;DHT22;53933;52.142;11.738;2022-08-04T15:37:17;30.90;42.60
67027;DHT22;53933;52.142;11.738;2022-08-04T15:39:47;30.90;42.70
67027;DHT22;53933;52.142;11.738;2022-08-04T15:42:22;30.90;42.70
67027;DHT22;53933;52.142;11.738;2022-08-04T15:45:10;30.90;42.70
67027;DHT22;53933;52.142;11.738;2022-08-04T15:47:39;30.90;42.70
67027;DHT22;53933;52.142;11.738;2022-08-04T15:50:08;30.90;42.80
67027;DHT22;53933;52.142;11.738;2022-08-04T15:52:59;30.90;42.60
67027;DHT22;53933;52.142;11.738;2022-08-04T15:55:30;30.90;42.90
67027;DHT22;53933;52.142;11.738;2022-08-04T15:57:58;30.90;42.70
67027;DHT22;53933;52.142;11.738;2022-08-04T16:00:25;30.80;42.90
67027;DHT22;53933;52.142;11.738;2022-08-04T16:02:51;30.80;42.90
67027;DHT22;53933;52.142;11.738;2022-08-04T16:05:34;30.90;43.00
67027;DHT22;53933;52.142;11.738;2022-08-04T16:08:12;30.80;43.00
67027;DHT22;53933;52.142;11.738;2022-08-04T16:10:40;30.90;42.80
67027;DHT22;53933;52.142;11.738;2022-08-04T16:13:09;30.90;42.50
67027;DHT22;53933;52.142;11.738;2022-08-04T16:15:46;30.90;42.80